createdAt,value
2023-04-11T00:02:24.394Z,5.59
2023-04-11T00:04:55.879Z,5.56
2023-04-11T00:07:23.840Z,5.51
2023-04-11T00:09:51.739Z,5.44
2023-04-11T00:12:19.679Z,5.41
2023-04-11T00:14:49.149Z,5.37
2023-04-11T00:17:17.775Z,5.35
2023-04-11T00:19:46.424Z,5.31
2023-04-11T00:22:17.986Z,5.27
2023-04-11T00:24:46.036Z,5.23
2023-04-11T00:27:14.048Z,5.19
2023-04-11T00:29:42.451Z,5.15
2023-04-11T00:32:10.722Z,5.12
2023-04-11T00:34:39.594Z,5.11
2023-04-11T00:37:07.505Z,5.09
2023-04-11T00:39:35.459Z,5.07
2023-04-11T00:42:05.770Z,5.06
2023-04-11T00:44:37.280Z,5.03
2023-04-11T00:47:06.948Z,5.01
2023-04-11T00:49:36.130Z,4.98
2023-04-11T00:52:05.920Z,4.97
2023-04-11T00:54:34.360Z,4.96
2023-04-11T00:57:04.730Z,4.94
2023-04-11T00:59:33.391Z,4.91
2023-04-11T01:02:02.041Z,4.92
2023-04-11T01:04:30.302Z,4.88
2023-04-11T01:07:06.302Z,4.86
2023-04-11T01:09:36.281Z,4.84
2023-04-11T01:12:06.137Z,4.80
2023-04-11T01:14:34.186Z,4.77
2023-04-11T01:17:02.556Z,4.75
2023-04-11T01:19:30.979Z,4.74
2023-04-11T01:22:01.975Z,4.71
2023-04-11T01:24:30.921Z,4.71
2023-04-11T01:26:58.962Z,4.68
2023-04-11T01:29:27.311Z,4.67
2023-04-11T01:31:55.295Z,4.68
2023-04-11T01:34:28.270Z,4.66
2023-04-11T01:36:56.559Z,4.68
2023-04-11T01:39:24.788Z,4.69
2023-04-11T01:41:57.066Z,4.66
2023-04-11T01:44:26.857Z,4.71
2023-04-11T01:46:55.424Z,4.73
2023-04-11T01:49:24.786Z,4.73
2023-04-11T01:51:53.411Z,4.71
2023-04-11T01:54:21.406Z,4.73
2023-04-11T01:56:49.632Z,4.74
2023-04-11T01:59:17.749Z,4.74
2023-04-11T02:01:46.005Z,4.70
2023-04-11T02:04:14.157Z,4.66
2023-04-11T02:06:42.734Z,4.64
2023-04-11T02:09:10.731Z,4.60
2023-04-11T02:11:38.873Z,4.59
2023-04-11T02:14:09.825Z,4.57
2023-04-11T02:16:55.081Z,4.54
2023-04-11T02:19:26.178Z,4.52
2023-04-11T02:21:54.407Z,4.51
2023-04-11T02:24:22.609Z,4.47
2023-04-11T02:26:50.641Z,4.46
2023-04-11T02:29:19.437Z,4.46
2023-04-11T02:31:50.561Z,4.42
2023-04-11T02:34:18.754Z,4.37
2023-04-11T02:36:47.076Z,4.33
2023-04-11T02:39:15.342Z,4.30
2023-04-11T02:41:43.345Z,4.27
2023-04-11T02:44:12.541Z,4.23
2023-04-11T02:46:41.054Z,4.18
2023-04-11T02:49:09.785Z,4.14
2023-04-11T02:51:37.824Z,4.12
2023-04-11T02:54:06.374Z,4.08
2023-04-11T02:56:39.052Z,4.02
2023-04-11T02:59:07.585Z,3.98
2023-04-11T03:01:37.741Z,3.94
2023-04-11T03:04:07.396Z,3.90
2023-04-11T03:06:58.404Z,3.86
2023-04-11T03:09:26.493Z,3.82
2023-04-11T03:11:54.688Z,3.79
2023-04-11T03:14:22.980Z,3.76
2023-04-11T03:16:51.187Z,3.74
2023-04-11T03:19:19.371Z,3.71
2023-04-11T03:21:47.569Z,3.66
2023-04-11T03:24:15.654Z,3.63
2023-04-11T03:26:44.614Z,3.59
2023-04-11T03:29:14.836Z,3.53
2023-04-11T03:31:54.021Z,3.50
2023-04-11T03:34:23.510Z,3.47
2023-04-11T03:36:52.743Z,3.44
2023-04-11T03:39:22.086Z,3.42
2023-04-11T03:41:51.040Z,3.39
2023-04-11T03:44:20.022Z,3.34
2023-04-11T03:46:48.716Z,3.29
2023-04-11T03:49:17.249Z,3.22
2023-04-11T03:51:46.472Z,3.14
2023-04-11T03:54:15.390Z,3.07
2023-04-11T03:56:44.091Z,3.04
2023-04-11T03:59:17.754Z,2.99
2023-04-11T04:01:53.887Z,2.95
2023-04-11T04:04:22.640Z,2.91
2023-04-11T04:06:57.938Z,2.91
2023-04-11T04:09:31.939Z,2.91
2023-04-11T04:12:01.875Z,2.91
2023-04-11T04:14:40.805Z,2.93
2023-04-11T04:17:10.488Z,2.91
2023-04-11T04:19:39.509Z,2.92
2023-04-11T04:22:17.792Z,2.93
2023-04-11T04:24:50.248Z,2.93
2023-04-11T04:27:25.065Z,2.92
2023-04-11T04:30:03.775Z,2.92
2023-04-11T04:32:45.104Z,2.92
2023-04-11T04:35:16.781Z,2.93
2023-04-11T04:37:45.895Z,2.96
2023-04-11T04:40:21.472Z,3.00
2023-04-11T04:42:58.868Z,3.05
2023-04-11T04:45:58.437Z,3.10
2023-04-11T04:48:34.952Z,3.15
2023-04-11T04:51:05.372Z,3.21
2023-04-11T04:53:38.808Z,3.26
2023-04-11T04:56:09.669Z,3.28
2023-04-11T04:58:40.772Z,3.32
2023-04-11T05:01:11.511Z,3.38
2023-04-11T05:03:40.249Z,3.45
2023-04-11T05:06:14.000Z,3.51
2023-04-11T05:08:44.954Z,3.54
2023-04-11T05:11:13.391Z,3.61
2023-04-11T05:13:42.759Z,3.70
2023-04-11T05:16:11.390Z,3.76
2023-04-11T05:18:42.986Z,3.82
2023-04-11T05:21:11.951Z,3.87
2023-04-11T05:23:43.187Z,3.91
2023-04-11T05:26:11.674Z,3.96
2023-04-11T05:28:41.658Z,3.98
2023-04-11T05:31:12.468Z,4.02
2023-04-11T05:33:42.182Z,4.10
2023-04-11T05:36:17.123Z,4.16
2023-04-11T05:38:46.856Z,4.27
2023-04-11T05:41:15.001Z,4.35
2023-04-11T05:43:43.191Z,4.43
2023-04-11T05:46:12.869Z,4.51
2023-04-11T05:48:41.685Z,4.60
2023-04-11T05:51:11.759Z,4.68
2023-04-11T05:53:40.165Z,4.78
2023-04-11T05:56:09.840Z,4.87
2023-04-11T05:58:39.043Z,4.97
2023-04-11T06:01:07.621Z,5.07
2023-04-11T06:03:36.042Z,5.18
2023-04-11T06:06:04.566Z,5.30
2023-04-11T06:08:32.729Z,5.42
2023-04-11T06:11:00.729Z,5.52
2023-04-11T06:13:28.948Z,5.65
2023-04-11T06:15:57.077Z,5.77
2023-04-11T06:18:25.720Z,5.89
2023-04-11T06:20:54.596Z,6.02
2023-04-11T06:23:22.850Z,6.14
2023-04-11T06:25:51.804Z,6.27
2023-04-11T06:28:22.454Z,6.40
2023-04-11T06:30:53.320Z,6.53
2023-04-11T06:33:24.954Z,6.65
2023-04-11T06:35:53.975Z,6.76
2023-04-11T06:38:22.564Z,6.88
2023-04-11T06:40:54.727Z,7.01
2023-04-11T06:43:22.725Z,7.13
2023-04-11T06:45:51.725Z,7.26
2023-04-11T06:48:21.281Z,7.37
2023-04-11T06:50:49.560Z,7.50
2023-04-11T06:53:17.698Z,7.64
2023-04-11T06:55:50.120Z,7.77
2023-04-11T06:58:18.194Z,7.88
2023-04-11T07:00:46.293Z,8.00
2023-04-11T07:03:15.268Z,8.11
2023-04-11T07:05:43.896Z,8.26
2023-04-11T07:08:12.702Z,8.36
2023-04-11T07:10:41.265Z,8.48
2023-04-11T07:13:16.125Z,8.60
2023-04-11T07:15:44.656Z,8.74
2023-04-11T07:18:14.567Z,8.88
2023-04-11T07:20:43.390Z,8.99
2023-04-11T07:23:12.218Z,9.09
2023-04-11T07:25:45.005Z,9.16
2023-04-11T07:28:13.776Z,9.29
2023-04-11T07:30:42.589Z,9.38
2023-04-11T07:33:10.631Z,9.51
2023-04-11T07:35:38.725Z,9.67
2023-04-11T07:38:09.479Z,9.79
2023-04-11T07:40:37.817Z,9.89
2023-04-11T07:43:08.014Z,10.01
2023-04-11T07:45:37.351Z,10.17
2023-04-11T07:48:06.152Z,10.34
2023-04-11T07:50:34.686Z,10.50
2023-04-11T07:53:03.586Z,10.74
2023-04-11T07:55:31.728Z,10.90
2023-04-11T07:58:02.039Z,11.04
2023-04-11T08:00:32.814Z,11.18
2023-04-11T08:03:05.168Z,11.31
2023-04-11T08:05:36.065Z,11.36
2023-04-11T08:08:06.508Z,11.47
2023-04-11T08:10:34.889Z,11.57
2023-04-11T08:13:04.611Z,11.56
2023-04-11T08:15:35.050Z,11.64
2023-04-11T08:18:05.037Z,11.84
2023-04-11T08:20:33.307Z,11.88
2023-04-11T08:23:06.491Z,12.01
2023-04-11T08:25:36.893Z,12.16
2023-04-11T08:28:11.096Z,12.28
2023-04-11T08:30:40.493Z,12.27
2023-04-11T08:33:10.307Z,12.49
2023-04-11T08:35:43.022Z,12.70
2023-04-11T08:38:11.502Z,12.66
2023-04-11T08:40:39.915Z,12.62
2023-04-11T08:43:12.405Z,12.77
2023-04-11T08:45:41.808Z,12.57
2023-04-11T08:48:12.852Z,12.52
2023-04-11T08:50:42.607Z,12.62
2023-04-11T08:53:11.661Z,12.83
2023-04-11T08:55:51.132Z,12.76
2023-04-11T08:58:20.847Z,12.82
2023-04-11T09:00:50.088Z,12.98
2023-04-11T09:03:19.186Z,13.02
2023-04-11T09:05:47.639Z,13.02
2023-04-11T09:08:17.159Z,13.00
2023-04-11T09:10:46.187Z,13.16
2023-04-11T09:13:24.096Z,13.30
2023-04-11T09:16:13.020Z,13.40
2023-04-11T09:18:47.467Z,13.51
2023-04-11T09:21:17.060Z,13.29
2023-04-11T09:23:45.549Z,13.33
2023-04-11T09:26:26.408Z,13.52
2023-04-11T09:28:55.428Z,13.47
2023-04-11T09:31:40.669Z,13.55
2023-04-11T09:34:09.515Z,13.65
2023-04-11T09:36:39.021Z,13.40
2023-04-11T09:39:18.346Z,13.71
2023-04-11T09:41:46.737Z,13.92
2023-04-11T09:44:15.946Z,14.08
2023-04-11T09:46:57.298Z,14.44
2023-04-11T09:49:28.058Z,14.62
2023-04-11T09:51:57.809Z,14.68
2023-04-11T09:54:27.854Z,14.88
2023-04-11T09:56:58.839Z,15.22
2023-04-11T09:59:27.733Z,15.56
2023-04-11T10:01:57.757Z,15.48
2023-04-11T10:04:28.989Z,15.61
2023-04-11T10:07:07.851Z,15.95
2023-04-11T10:09:40.770Z,16.14
2023-04-11T10:12:10.336Z,16.39
2023-04-11T10:14:38.845Z,16.75
2023-04-11T10:17:22.955Z,17.08
2023-04-11T10:19:57.085Z,17.47
2023-04-11T10:22:43.949Z,17.95
2023-04-11T10:25:19.747Z,17.43
2023-04-11T10:27:49.246Z,17.15
2023-04-11T10:30:17.475Z,17.16
2023-04-11T10:33:16.731Z,16.73
2023-04-11T10:36:02.263Z,16.31
2023-04-11T10:38:49.361Z,16.03
2023-04-11T10:41:33.324Z,16.13
2023-04-11T10:44:21.517Z,16.13
2023-04-11T10:46:52.563Z,16.04
2023-04-11T10:49:39.408Z,15.84
2023-04-11T10:52:21.872Z,15.69
2023-04-11T10:54:52.354Z,15.31
2023-04-11T10:57:21.789Z,15.59
2023-04-11T10:59:49.966Z,15.82
2023-04-11T11:02:22.039Z,16.16
2023-04-11T11:04:53.200Z,16.80
2023-04-11T11:07:22.578Z,17.36
2023-04-11T11:09:51.524Z,17.95
2023-04-11T11:12:19.923Z,18.71
2023-04-11T11:14:48.937Z,19.09
2023-04-11T11:17:18.536Z,19.86
2023-04-11T11:19:48.345Z,18.77
2023-04-11T11:22:18.709Z,18.46
2023-04-11T11:24:46.817Z,18.09
2023-04-11T11:27:20.335Z,17.90
2023-04-11T11:29:51.937Z,18.18
2023-04-11T11:32:28.246Z,18.70
2023-04-11T11:37:46.540Z,18.36
2023-04-11T11:40:15.860Z,18.65
2023-04-11T11:42:44.213Z,18.89
2023-04-11T11:45:19.969Z,19.17
2023-04-11T11:47:49.859Z,20.13
2023-04-11T11:50:34.824Z,20.38
2023-04-11T11:53:16.544Z,20.66
2023-04-11T11:55:44.867Z,21.14
2023-04-11T11:58:13.713Z,20.40
2023-04-11T12:00:42.501Z,20.16
2023-04-11T12:03:11.303Z,20.75
2023-04-11T12:05:42.661Z,20.76
2023-04-11T12:08:11.119Z,21.17
2023-04-11T12:10:45.963Z,21.12
2023-04-11T12:13:27.111Z,20.92
2023-04-11T12:16:00.931Z,20.64
2023-04-11T12:18:29.108Z,20.65
2023-04-11T12:21:00.449Z,19.22
2023-04-11T12:23:34.520Z,18.57
2023-04-11T12:26:04.500Z,17.75
2023-04-11T12:28:32.967Z,17.41
2023-04-11T12:31:01.086Z,16.90
2023-04-11T12:33:32.630Z,16.79
2023-04-11T12:36:01.945Z,16.75
2023-04-11T12:38:30.260Z,16.67
2023-04-11T12:41:19.903Z,16.80
2023-04-11T12:43:46.802Z,16.89
2023-04-11T12:46:15.536Z,16.96
2023-04-11T12:48:44.362Z,17.11
2023-04-11T12:51:14.146Z,17.04
2023-04-11T12:53:42.723Z,17.29
2023-04-11T12:56:10.801Z,17.78
2023-04-11T12:58:38.880Z,17.98
2023-04-11T13:01:07.530Z,18.00
2023-04-11T13:03:35.790Z,17.81
2023-04-11T13:06:07.778Z,18.20
2023-04-11T13:08:35.906Z,19.19
2023-04-11T13:11:04.279Z,20.42
2023-04-11T13:13:32.299Z,20.59
2023-04-11T13:16:00.646Z,21.13
2023-04-11T13:18:29.702Z,21.36
2023-04-11T13:20:58.103Z,21.21
2023-04-11T13:23:26.268Z,21.58
2023-04-11T13:25:54.321Z,21.81
2023-04-11T13:28:22.460Z,22.95
2023-04-11T13:30:54.437Z,22.56
2023-04-11T13:33:23.050Z,21.56
2023-04-11T13:35:51.091Z,20.05
2023-04-11T13:38:19.236Z,19.53
2023-04-11T13:40:47.343Z,19.30
2023-04-11T13:43:15.435Z,18.64
2023-04-11T13:45:43.640Z,17.93
2023-04-11T13:48:14.497Z,17.81
2023-04-11T13:50:42.993Z,17.86
2023-04-11T13:53:11.295Z,17.95
2023-04-11T13:55:39.580Z,17.44
2023-04-11T13:58:08.022Z,16.87
2023-04-11T14:00:37.030Z,16.81
2023-04-11T14:03:05.218Z,16.66
2023-04-11T14:05:35.665Z,16.51
2023-04-11T14:08:05.381Z,16.09
2023-04-11T14:10:33.981Z,16.06
2023-04-11T14:13:02.569Z,15.99
2023-04-11T14:15:31.724Z,16.06
2023-04-11T14:18:03.456Z,16.15
2023-04-11T14:20:32.036Z,16.34
2023-04-11T14:23:05.354Z,17.46
2023-04-11T14:25:33.768Z,18.88
2023-04-11T14:28:02.724Z,19.91
2023-04-11T14:30:32.183Z,20.58
2023-04-11T14:33:02.111Z,20.83
2023-04-11T14:35:32.629Z,20.49
2023-04-11T14:38:03.030Z,20.73
2023-04-11T14:40:31.253Z,21.87
2023-04-11T14:42:59.461Z,21.99
2023-04-11T14:45:28.142Z,21.31
2023-04-11T14:47:57.338Z,20.46
2023-04-11T14:50:27.002Z,19.40
2023-04-11T14:52:56.090Z,18.64
2023-04-11T14:55:25.020Z,18.16
2023-04-11T14:57:58.907Z,17.64
2023-04-11T15:00:27.933Z,17.07
2023-04-11T15:02:57.723Z,16.87
2023-04-11T15:05:27.146Z,16.68
2023-04-11T15:07:55.772Z,16.41
2023-04-11T15:10:25.940Z,16.03
2023-04-11T15:12:56.362Z,15.74
2023-04-11T15:15:24.520Z,15.70
2023-04-11T15:18:26.969Z,15.38
2023-04-11T15:20:57.140Z,15.15
2023-04-11T15:23:26.932Z,15.14
2023-04-11T15:26:03.500Z,15.04
2023-04-11T15:28:34.362Z,14.96
2023-04-11T15:31:07.292Z,15.03
2023-04-11T15:33:36.861Z,15.44
2023-04-11T15:36:05.796Z,15.92
2023-04-11T15:38:38.019Z,16.54
2023-04-11T15:41:07.863Z,16.85
2023-04-11T15:43:37.457Z,16.84
2023-04-11T15:46:08.988Z,16.36
2023-04-11T15:48:38.587Z,16.08
2023-04-11T15:51:11.521Z,15.70
2023-04-11T15:53:40.441Z,15.43
2023-04-11T15:56:08.761Z,15.26
2023-04-11T15:58:39.219Z,15.20
2023-04-11T16:01:07.513Z,15.02
2023-04-11T16:03:36.005Z,15.00
2023-04-11T16:06:05.978Z,15.15
2023-04-11T16:08:34.379Z,15.16
2023-04-11T16:11:02.562Z,14.99
2023-04-11T16:13:32.524Z,14.90
2023-04-11T16:16:01.234Z,14.77
2023-04-11T16:18:30.120Z,14.66
2023-04-11T16:20:59.432Z,14.56
2023-04-11T16:23:27.780Z,14.36
2023-04-11T16:25:56.631Z,14.13
2023-04-11T16:28:24.666Z,13.95
2023-04-11T16:30:53.103Z,13.95
2023-04-11T16:33:22.055Z,13.98
2023-04-11T16:35:50.137Z,13.85
2023-04-11T16:38:18.507Z,13.65
2023-04-11T16:40:46.834Z,13.24
2023-04-11T16:43:16.695Z,13.02
2023-04-11T16:45:46.772Z,12.96
2023-04-11T16:48:15.170Z,12.68
2023-04-11T16:50:44.906Z,12.60
2023-04-11T16:53:13.149Z,12.49
2023-04-11T16:55:41.225Z,12.40
2023-04-11T16:58:12.472Z,12.30
2023-04-11T17:00:40.850Z,12.19
2023-04-11T17:03:09.279Z,12.00
2023-04-11T17:05:39.326Z,11.89
2023-04-11T17:08:07.826Z,11.75
2023-04-11T17:10:39.519Z,11.75
2023-04-11T17:13:08.690Z,11.67
2023-04-11T17:15:37.815Z,11.62
2023-04-11T17:18:06.404Z,11.54
2023-04-11T17:20:37.203Z,11.45
2023-04-11T17:23:05.433Z,11.42
2023-04-11T17:25:33.806Z,11.33
2023-04-11T17:28:02.212Z,11.31
2023-04-11T17:30:31.952Z,11.23
2023-04-11T17:33:03.763Z,11.12
2023-04-11T17:35:32.749Z,11.08
2023-04-11T17:38:01.956Z,11.00
2023-04-11T17:40:30.652Z,10.94
2023-04-11T17:43:00.168Z,10.92
2023-04-11T17:45:30.497Z,10.86
2023-04-11T17:47:59.289Z,10.84
2023-04-11T17:50:31.877Z,10.80
2023-04-11T17:53:00.665Z,10.73
2023-04-11T17:55:29.141Z,10.67
2023-04-11T17:57:57.983Z,10.61
2023-04-11T18:00:26.747Z,10.59
2023-04-11T18:02:57.898Z,10.57
2023-04-11T18:05:28.414Z,10.53
2023-04-11T18:07:58.940Z,10.49
2023-04-11T18:10:28.570Z,10.43
2023-04-11T18:12:58.207Z,10.42
2023-04-11T18:15:28.022Z,10.38
2023-04-11T18:17:56.528Z,10.35
2023-04-11T18:20:25.062Z,10.33
2023-04-11T18:22:56.986Z,10.32
2023-04-11T18:25:25.765Z,10.32
2023-04-11T18:27:54.116Z,10.31
2023-04-11T18:30:22.438Z,10.26
2023-04-11T18:32:54.480Z,10.22
2023-04-11T18:35:26.928Z,10.22
2023-04-11T18:37:57.664Z,10.20
2023-04-11T18:40:26.653Z,10.18
2023-04-11T18:42:57.076Z,10.12
2023-04-11T18:45:26.653Z,10.09
2023-04-11T18:47:58.382Z,10.08
2023-04-11T18:50:30.805Z,10.05
2023-04-11T18:53:03.946Z,10.05
2023-04-11T18:55:35.105Z,10.06
2023-04-11T18:58:06.123Z,10.04
2023-04-11T19:00:36.557Z,10.01
2023-04-11T19:03:05.327Z,9.96
2023-04-11T19:05:36.725Z,9.93
2023-04-11T19:08:05.098Z,9.90
2023-04-11T19:10:33.361Z,9.89
2023-04-11T19:13:01.637Z,9.88
2023-04-11T19:15:30.608Z,9.85
2023-04-11T19:17:59.854Z,9.84
2023-04-11T19:20:29.589Z,9.80
2023-04-11T19:22:57.749Z,9.75
2023-04-11T19:25:27.222Z,9.70
2023-04-11T19:27:55.793Z,9.64
2023-04-11T19:30:24.791Z,9.61
2023-04-11T19:32:53.059Z,9.57
2023-04-11T19:35:24.420Z,9.53
2023-04-11T19:37:53.690Z,9.51
2023-04-11T19:40:24.831Z,9.49
2023-04-11T19:42:53.369Z,9.43
2023-04-11T19:45:22.746Z,9.40
2023-04-11T19:47:51.669Z,9.35
2023-04-11T19:50:23.080Z,9.30
2023-04-11T19:52:57.020Z,9.26
2023-04-11T19:55:25.508Z,9.22
2023-04-11T19:57:56.001Z,9.15
2023-04-11T20:00:26.537Z,9.12
2023-04-11T20:02:55.714Z,9.10
2023-04-11T20:05:24.074Z,9.05
2023-04-11T20:07:52.154Z,9.01
2023-04-11T20:10:20.293Z,8.96
2023-04-11T20:12:48.265Z,8.94
2023-04-11T20:15:16.521Z,8.92
2023-04-11T20:17:46.314Z,8.89
2023-04-11T20:20:15.992Z,8.86
2023-04-11T20:22:45.145Z,8.84
2023-04-11T20:25:14.165Z,8.81
2023-04-11T20:27:43.213Z,8.79
2023-04-11T20:30:12.269Z,8.74
2023-04-11T20:32:41.582Z,8.70
2023-04-11T20:35:14.358Z,8.68
2023-04-11T20:37:43.674Z,8.61
2023-04-11T20:40:13.960Z,8.53
2023-04-11T20:42:45.448Z,8.48
2023-04-11T20:45:16.225Z,8.44
2023-04-11T20:47:50.421Z,8.38
2023-04-11T20:50:19.457Z,8.33
2023-04-11T20:52:51.383Z,8.30
2023-04-11T20:55:20.997Z,8.26
2023-04-11T20:57:49.191Z,8.24
2023-04-11T21:00:18.541Z,8.23
2023-04-11T21:02:50.207Z,8.21
2023-04-11T21:05:25.049Z,8.21
2023-04-11T21:07:55.435Z,8.19
2023-04-11T21:10:24.789Z,8.18
2023-04-11T21:12:54.165Z,8.16
2023-04-11T21:15:22.771Z,8.13
2023-04-11T21:17:50.895Z,8.11
2023-04-11T21:20:20.076Z,8.09
2023-04-11T21:22:53.164Z,8.05
2023-04-11T21:25:22.214Z,8.01
2023-04-11T21:27:50.325Z,7.97
2023-04-11T21:30:18.648Z,7.95
2023-04-11T21:32:47.175Z,7.92
2023-04-11T21:35:15.512Z,7.91
2023-04-11T21:37:43.575Z,7.87
2023-04-11T21:40:12.801Z,7.84
2023-04-11T21:42:41.024Z,7.80
2023-04-11T21:45:09.344Z,7.75
2023-04-11T21:47:37.848Z,7.69
2023-04-11T21:50:08.000Z,7.67
2023-04-11T21:52:35.910Z,7.61
2023-04-11T21:55:06.474Z,7.56
2023-04-11T21:57:36.094Z,7.51
2023-04-11T22:00:08.044Z,7.47
2023-04-11T22:02:42.957Z,7.41
2023-04-11T22:05:12.984Z,7.37
2023-04-11T22:07:46.924Z,7.34
2023-04-11T22:10:23.606Z,7.32
2023-04-11T22:12:54.469Z,7.29
2023-04-11T22:15:24.647Z,7.27
2023-04-11T22:17:54.989Z,7.24
2023-04-11T22:20:23.090Z,7.20
2023-04-11T22:22:51.047Z,7.15
2023-04-11T22:25:22.519Z,7.11
2023-04-11T22:27:54.569Z,7.08
2023-04-11T22:30:23.526Z,7.04
2023-04-11T22:32:54.277Z,7.01
2023-04-11T22:35:24.934Z,6.98
2023-04-11T22:37:55.462Z,6.97
2023-04-11T22:40:24.270Z,6.95
2023-04-11T22:42:53.192Z,6.94
2023-04-11T22:45:22.991Z,6.92
2023-04-11T22:47:54.338Z,6.89
2023-04-11T22:50:23.444Z,6.87
2023-04-11T22:52:51.591Z,6.84
2023-04-11T22:55:21.250Z,6.81
2023-04-11T22:57:49.492Z,6.78
2023-04-11T23:00:18.968Z,6.77
2023-04-11T23:02:47.157Z,6.73
2023-04-11T23:05:16.881Z,6.71
2023-04-11T23:07:45.370Z,6.70
2023-04-11T23:10:17.383Z,6.68
2023-04-11T23:12:45.463Z,6.66
2023-04-11T23:15:13.524Z,6.64
2023-04-11T23:17:41.708Z,6.61
2023-04-11T23:20:13.853Z,6.59
2023-04-11T23:22:44.030Z,6.56
2023-04-11T23:25:15.247Z,6.52
2023-04-11T23:27:44.640Z,6.50
2023-04-11T23:30:14.989Z,6.46
2023-04-11T23:32:43.264Z,6.44
2023-04-11T23:35:11.904Z,6.40
2023-04-11T23:37:41.057Z,6.37
2023-04-11T23:40:11.084Z,6.34
2023-04-11T23:42:41.147Z,6.31
2023-04-11T23:45:11.335Z,6.28
2023-04-11T23:47:39.322Z,6.24
2023-04-11T23:50:09.179Z,6.20
2023-04-11T23:52:37.084Z,6.17
2023-04-11T23:55:05.545Z,6.13
2023-04-11T23:57:33.623Z,6.09
